Terminal Aerodrome Forecast
Issued by NWS Charleston, WV

Current Version | Previous Version | Text Only | Print | Product List | Glossary Off
Versions: 1 2 3 4 5 6 7 8 9 10 11 12 13 14 15 16 17 18 19 20 21

917
FTUS41 KRLX 250253 AAA
TAFHTS
TAF AMD
KHTS 250253Z 2503/2524 19008KT P6SM FEW050
     FM250900 20008KT P6SM BKN014
     FM251800 21007KT 3SM SHRA OVC014
     FM252000 24007KT 3SM SHRA OVC009=

USA.gov is the U.S. government's official web portal to all federal, state and local government web resources and services.